createdAt,value
2023-04-14T00:01:18.639Z,7.20
2023-04-14T00:03:47.268Z,7.80
2023-04-14T00:06:17.281Z,7.47
2023-04-14T00:08:46.032Z,7.87
2023-04-14T00:11:14.641Z,8.23
2023-04-14T00:13:43.102Z,8.27
2023-04-14T00:16:12.267Z,8.57
2023-04-14T00:18:40.878Z,7.60
2023-04-14T00:21:09.328Z,8.37
2023-04-14T00:23:39.165Z,9.13
2023-04-14T00:26:07.708Z,9.47
2023-04-14T00:28:36.261Z,8.40
2023-04-14T00:31:04.699Z,9.30
2023-04-14T00:33:33.719Z,8.60
2023-04-14T00:36:03.535Z,9.50
2023-04-14T00:38:32.550Z,8.37
2023-04-14T00:41:02.643Z,9.23
2023-04-14T00:43:31.228Z,9.70
2023-04-14T00:46:00.731Z,10.50
2023-04-14T00:48:29.282Z,9.80
2023-04-14T00:50:57.906Z,9.10
2023-04-14T00:53:27.416Z,10.37
2023-04-14T00:55:56.242Z,9.80
2023-04-14T00:58:26.920Z,9.73
2023-04-14T01:00:57.321Z,9.80
2023-04-14T01:03:26.918Z,9.70
2023-04-14T01:05:55.537Z,9.80
2023-04-14T01:08:24.585Z,9.77
2023-04-14T01:11:07.997Z,8.77
2023-04-14T01:13:43.988Z,9.77
2023-04-14T01:16:17.845Z,10.07
2023-04-14T01:18:52.788Z,9.77
2023-04-14T01:21:24.972Z,9.00
2023-04-14T01:24:11.146Z,9.90
2023-04-14T01:26:40.025Z,8.70
2023-04-14T01:29:32.496Z,8.57
2023-04-14T01:32:05.783Z,9.17
2023-04-14T01:34:40.409Z,8.27
2023-04-14T01:37:10.710Z,8.60
2023-04-14T01:39:42.478Z,9.10
2023-04-14T01:42:16.704Z,9.03
2023-04-14T01:44:46.395Z,8.77
2023-04-14T01:47:19.347Z,8.10
2023-04-14T01:49:51.626Z,8.13
2023-04-14T01:52:20.702Z,8.80
2023-04-14T01:54:51.674Z,7.87
2023-04-14T01:57:22.817Z,7.93
2023-04-14T01:59:53.685Z,8.80
2023-04-14T02:02:24.798Z,9.20
2023-04-14T02:04:54.134Z,7.93
2023-04-14T02:07:23.297Z,9.03
2023-04-14T02:09:54.012Z,8.53
2023-04-14T02:12:24.907Z,7.77
2023-04-14T02:14:54.567Z,8.50
2023-04-14T02:17:25.557Z,8.80
2023-04-14T02:19:55.658Z,8.50
2023-04-14T02:22:24.144Z,8.43
2023-04-14T02:24:54.560Z,9.37
2023-04-14T02:27:30.399Z,8.80
2023-04-14T02:30:07.173Z,7.87
2023-04-14T02:32:37.643Z,7.87
2023-04-14T02:35:12.141Z,7.77
2023-04-14T02:37:43.569Z,8.30
2023-04-14T02:40:17.233Z,7.57
2023-04-14T02:42:49.230Z,7.60
2023-04-14T02:45:22.773Z,8.83
2023-04-14T02:47:58.429Z,8.53
2023-04-14T02:50:28.329Z,7.70
2023-04-14T02:53:07.854Z,7.30
2023-04-14T02:55:38.887Z,7.50
2023-04-14T02:58:07.784Z,6.80
2023-04-14T03:00:40.309Z,6.80
2023-04-14T03:03:11.397Z,7.10
2023-04-14T03:05:40.725Z,7.33
2023-04-14T03:08:12.616Z,8.30
2023-04-14T03:10:44.358Z,7.90
2023-04-14T03:13:13.332Z,7.90
2023-04-14T03:15:43.556Z,7.97
2023-04-14T03:18:13.842Z,7.60
2023-04-14T03:20:45.425Z,7.93
2023-04-14T03:23:15.651Z,7.63
2023-04-14T03:25:51.281Z,7.23
2023-04-14T03:28:27.608Z,8.30
2023-04-14T03:31:01.454Z,7.67
2023-04-14T03:33:38.863Z,8.03
2023-04-14T03:36:11.931Z,7.57
2023-04-14T03:38:42.151Z,8.53
2023-04-14T03:41:11.661Z,8.37
2023-04-14T03:43:41.183Z,9.90
2023-04-14T03:46:14.105Z,9.37
2023-04-14T03:48:47.554Z,10.13
2023-04-14T03:51:18.179Z,9.30
2023-04-14T03:53:47.195Z,11.00
2023-04-14T03:56:17.815Z,10.70
2023-04-14T03:58:49.419Z,10.23
2023-04-14T04:01:20.494Z,11.80
2023-04-14T04:03:50.862Z,10.10
2023-04-14T04:06:19.628Z,10.43
2023-04-14T04:08:49.493Z,10.47
2023-04-14T04:11:20.823Z,12.37
2023-04-14T04:13:51.790Z,9.90
2023-04-14T04:16:22.450Z,11.63
2023-04-14T04:18:52.465Z,11.60
2023-04-14T04:21:28.366Z,11.40
2023-04-14T04:23:58.220Z,11.60
2023-04-14T04:26:27.213Z,11.53
2023-04-14T04:28:57.464Z,11.50
2023-04-14T04:31:29.274Z,11.53
2023-04-14T04:33:59.650Z,11.30
2023-04-14T04:36:28.518Z,11.23
2023-04-14T04:38:58.814Z,11.60
2023-04-14T04:41:29.493Z,10.37
2023-04-14T04:44:01.677Z,11.37
2023-04-14T04:46:47.859Z,10.97
2023-04-14T04:49:19.116Z,12.30
2023-04-14T04:51:48.080Z,11.57
2023-04-14T04:54:19.262Z,12.07
2023-04-14T04:56:47.813Z,11.23
2023-04-14T04:59:16.279Z,11.80
2023-04-14T05:01:44.806Z,12.67
2023-04-14T05:04:13.426Z,12.07
2023-04-14T05:06:43.299Z,12.30
2023-04-14T05:09:12.065Z,11.93
2023-04-14T05:11:40.594Z,12.07
2023-04-14T05:14:09.146Z,13.20
2023-04-14T05:16:37.650Z,12.83
2023-04-14T05:19:06.147Z,12.77
2023-04-14T05:21:34.888Z,13.50
2023-04-14T05:24:05.520Z,13.73
2023-04-14T05:26:48.823Z,13.57
2023-04-14T05:29:22.663Z,14.00
2023-04-14T05:31:51.130Z,13.50
2023-04-14T05:34:19.705Z,12.90
2023-04-14T05:36:48.293Z,13.63
2023-04-14T05:39:18.166Z,14.10
2023-04-14T05:41:46.837Z,14.77
2023-04-14T05:44:15.253Z,14.33
2023-04-14T05:46:43.798Z,15.00
2023-04-14T05:49:12.785Z,14.47
2023-04-14T05:51:41.445Z,13.83
2023-04-14T05:54:09.818Z,13.43
2023-04-14T05:56:40.444Z,13.67
2023-04-14T05:59:09.120Z,13.90
2023-04-14T06:01:37.599Z,14.57
2023-04-14T06:04:06.600Z,14.57
2023-04-14T06:06:35.935Z,15.70
2023-04-14T06:09:04.892Z,14.17
2023-04-14T06:11:33.354Z,14.20
2023-04-14T06:14:03.266Z,13.63
2023-04-14T06:16:32.100Z,13.97
2023-04-14T06:19:01.023Z,13.67
2023-04-14T06:21:29.992Z,15.10
2023-04-14T06:23:58.454Z,14.90
2023-04-14T06:26:26.908Z,15.47
2023-04-14T06:28:55.419Z,15.70
2023-04-14T06:31:25.472Z,14.00
2023-04-14T06:33:54.070Z,14.80
2023-04-14T06:36:22.616Z,16.33
2023-04-14T06:38:51.226Z,15.77
2023-04-14T06:41:19.796Z,15.37
2023-04-14T06:43:48.275Z,15.50
2023-04-14T06:46:17.317Z,15.47
2023-04-14T06:48:47.262Z,15.23
2023-04-14T06:51:15.994Z,17.00
2023-04-14T06:53:44.519Z,16.00
2023-04-14T06:56:12.969Z,16.77
2023-04-14T06:58:41.434Z,16.60
2023-04-14T07:01:10.002Z,15.83
2023-04-14T07:03:39.565Z,17.27
2023-04-14T07:06:11.905Z,17.23
2023-04-14T07:08:40.960Z,17.83
2023-04-14T07:11:11.730Z,16.90
2023-04-14T07:13:41.517Z,17.33
2023-04-14T07:16:10.202Z,17.67
2023-04-14T07:18:38.803Z,16.43
2023-04-14T07:21:07.361Z,16.33
2023-04-14T07:23:37.584Z,16.83
2023-04-14T07:26:07.376Z,15.33
2023-04-14T07:28:35.784Z,14.60
2023-04-14T07:31:10.244Z,14.93
2023-04-14T07:33:39.884Z,16.77
2023-04-14T07:36:09.413Z,16.10
2023-04-14T07:38:39.303Z,15.07
2023-04-14T07:41:08.447Z,15.80
2023-04-14T07:43:37.090Z,15.70
2023-04-14T07:46:08.765Z,15.77
2023-04-14T07:48:38.639Z,15.77
2023-04-14T07:51:07.819Z,16.77
2023-04-14T07:53:42.487Z,15.97
2023-04-14T07:56:11.362Z,15.10
2023-04-14T07:58:40.169Z,15.37
2023-04-14T08:01:09.110Z,16.30
2023-04-14T08:03:38.210Z,15.50
2023-04-14T08:06:07.653Z,15.60
2023-04-14T08:08:36.783Z,16.07
2023-04-14T08:11:06.738Z,16.50
2023-04-14T08:13:35.237Z,15.30
2023-04-14T08:16:04.234Z,17.30
2023-04-14T08:18:32.868Z,14.63
2023-04-14T08:21:01.448Z,15.83
2023-04-14T08:23:30.293Z,14.40
2023-04-14T08:25:59.116Z,15.80
2023-04-14T08:28:29.446Z,15.40
2023-04-14T08:30:58.192Z,15.83
2023-04-14T08:33:27.234Z,16.63
2023-04-14T08:35:59.638Z,16.57
2023-04-14T08:38:29.894Z,16.07
2023-04-14T08:40:58.685Z,16.13
2023-04-14T08:43:28.588Z,15.77
2023-04-14T08:45:58.581Z,17.87
2023-04-14T08:48:31.016Z,16.97
2023-04-14T08:51:06.455Z,16.83
2023-04-14T08:53:35.113Z,16.27
2023-04-14T08:56:05.514Z,16.73
2023-04-14T08:58:35.542Z,16.10
2023-04-14T09:01:04.702Z,16.50
2023-04-14T09:03:33.882Z,15.73
2023-04-14T09:06:02.904Z,16.47
2023-04-14T09:08:34.167Z,15.47
2023-04-14T09:11:03.643Z,16.37
2023-04-14T09:13:33.930Z,15.77
2023-04-14T09:16:03.640Z,16.20
2023-04-14T09:18:34.450Z,16.50
2023-04-14T09:21:50.612Z,16.73
2023-04-14T09:23:54.009Z,15.60
2023-04-14T09:26:22.679Z,15.50
2023-04-14T09:28:52.873Z,16.37
2023-04-14T09:31:21.786Z,15.07
2023-04-14T09:33:51.555Z,16.40
2023-04-14T09:36:21.212Z,16.07
2023-04-14T09:38:50.505Z,16.13
2023-04-14T09:41:19.827Z,16.10
2023-04-14T09:43:48.449Z,18.23
2023-04-14T09:46:18.447Z,16.73
2023-04-14T09:48:55.141Z,17.17
2023-04-14T09:51:24.952Z,16.20
2023-04-14T09:53:54.588Z,16.60
2023-04-14T09:56:27.972Z,17.30
2023-04-14T09:59:00.702Z,18.57
2023-04-14T10:01:34.081Z,18.63
2023-04-14T10:04:03.669Z,19.90
2023-04-14T10:06:32.627Z,20.43
2023-04-14T10:09:02.773Z,19.00
2023-04-14T10:11:33.171Z,19.07
2023-04-14T10:14:03.936Z,16.60
2023-04-14T10:16:34.981Z,18.63
2023-04-14T10:19:04.346Z,18.63
2023-04-14T10:21:33.365Z,17.27
2023-04-14T10:24:02.109Z,20.00
2023-04-14T10:26:31.397Z,18.77
2023-04-14T10:29:02.729Z,16.70
2023-04-14T10:31:35.470Z,17.10
2023-04-14T10:34:09.503Z,17.27
2023-04-14T10:36:38.518Z,17.50
2023-04-14T10:39:07.918Z,18.00
2023-04-14T10:41:55.063Z,16.83
2023-04-14T10:44:28.889Z,17.83
2023-04-14T10:47:00.695Z,17.83
2023-04-14T10:49:33.315Z,18.03
2023-04-14T10:52:03.804Z,20.30
2023-04-14T10:54:51.552Z,20.33
2023-04-14T10:57:24.227Z,19.67
2023-04-14T10:59:57.228Z,19.30
2023-04-14T11:02:31.453Z,20.03
2023-04-14T11:05:02.430Z,20.43
2023-04-14T11:07:32.342Z,20.53
2023-04-14T11:10:05.151Z,19.63
2023-04-14T11:12:33.760Z,18.47
2023-04-14T11:15:04.142Z,16.63
2023-04-14T11:17:39.545Z,20.10
2023-04-14T11:20:16.128Z,19.67
2023-04-14T11:22:46.100Z,19.80
2023-04-14T11:25:16.630Z,20.13
2023-04-14T11:27:46.326Z,20.27
2023-04-14T11:30:16.958Z,20.97
2023-04-14T11:32:52.339Z,21.40
2023-04-14T11:35:22.079Z,22.27
2023-04-14T11:37:50.735Z,22.00
2023-04-14T11:40:19.570Z,23.67
2023-04-14T11:42:52.169Z,22.90
2023-04-14T11:45:20.958Z,22.50
2023-04-14T11:47:58.947Z,21.33
2023-04-14T11:50:28.465Z,22.80
2023-04-14T11:52:59.514Z,22.93
2023-04-14T11:55:28.389Z,22.83
2023-04-14T11:57:57.929Z,23.97
2023-04-14T12:00:26.672Z,10.17
2023-04-14T12:02:56.843Z,8.70
2023-04-14T12:05:30.397Z,7.53
2023-04-14T12:08:00.426Z,7.67
2023-04-14T12:10:29.238Z,7.90
2023-04-14T12:13:01.902Z,7.40
2023-04-14T12:15:31.151Z,7.40
2023-04-14T12:18:01.524Z,8.90
2023-04-14T12:20:31.034Z,9.53
2023-04-14T12:23:03.411Z,8.93
2023-04-14T12:25:35.334Z,11.40
2023-04-14T12:28:06.584Z,12.47
2023-04-14T12:30:36.172Z,13.37
2023-04-14T12:33:11.373Z,14.73
2023-04-14T12:35:40.917Z,22.27
2023-04-14T12:38:13.797Z,22.57
2023-04-14T12:40:46.210Z,25.80
2023-04-14T12:43:16.318Z,22.50
2023-04-14T12:45:46.291Z,17.73
2023-04-14T12:48:17.653Z,16.00
2023-04-14T12:50:46.352Z,16.87
2023-04-14T12:53:28.421Z,15.47
2023-04-14T12:56:10.354Z,13.13
2023-04-14T12:58:40.620Z,10.83
2023-04-14T13:01:10.019Z,9.73
2023-04-14T13:03:46.124Z,12.50
2023-04-14T13:06:18.054Z,16.40
2023-04-14T13:08:49.164Z,18.67
2023-04-14T13:11:18.943Z,19.30
2023-04-14T13:13:47.909Z,18.87
2023-04-14T13:16:19.053Z,15.77
2023-04-14T13:18:49.813Z,16.37
2023-04-14T13:21:18.538Z,16.07
2023-04-14T13:23:47.712Z,12.97
2023-04-14T13:26:16.377Z,13.40
2023-04-14T13:28:45.018Z,11.93
2023-04-14T13:31:13.718Z,8.67
2023-04-14T13:33:42.183Z,8.10
2023-04-14T13:36:12.216Z,7.37
2023-04-14T13:38:40.936Z,8.00
2023-04-14T13:41:09.581Z,6.90
2023-04-14T13:43:38.171Z,7.00
2023-04-14T13:46:07.149Z,7.80
2023-04-14T13:48:35.652Z,8.67
2023-04-14T13:51:04.790Z,9.40
2023-04-14T13:53:34.753Z,9.03
2023-04-14T13:56:03.582Z,9.73
2023-04-14T13:58:32.231Z,9.77
2023-04-14T14:01:09.363Z,9.93
2023-04-14T14:03:40.133Z,9.37
2023-04-14T14:06:09.082Z,9.40
2023-04-14T14:08:39.070Z,9.10
2023-04-14T14:11:08.084Z,8.40
2023-04-14T14:13:38.611Z,9.27
2023-04-14T14:16:08.389Z,8.87
2023-04-14T14:18:37.959Z,8.70
2023-04-14T14:21:06.869Z,7.57
2023-04-14T14:23:35.761Z,8.20
2023-04-14T14:26:05.823Z,8.63
2023-04-14T14:28:34.732Z,7.40
2023-04-14T14:31:05.615Z,6.53
2023-04-14T14:33:35.420Z,6.63
2023-04-14T14:36:04.133Z,6.23
2023-04-14T14:38:32.801Z,6.47
2023-04-14T14:41:01.220Z,6.40
2023-04-14T14:43:31.136Z,7.23
2023-04-14T14:46:01.374Z,6.17
2023-04-14T14:48:32.839Z,6.50
2023-04-14T14:51:02.510Z,6.67
2023-04-14T14:53:32.381Z,6.80
2023-04-14T14:56:01.093Z,7.00
2023-04-14T14:58:31.146Z,7.83
2023-04-14T15:00:59.747Z,7.13
2023-04-14T15:03:28.388Z,8.33
2023-04-14T15:05:57.151Z,7.93
2023-04-14T15:08:26.300Z,8.43
2023-04-14T15:10:54.814Z,6.77
2023-04-14T15:13:23.911Z,7.50
2023-04-14T15:15:53.881Z,7.37
2023-04-14T15:18:22.663Z,8.07
2023-04-14T15:20:51.517Z,8.20
2023-04-14T15:23:20.093Z,8.10
2023-04-14T15:25:48.913Z,7.90
2023-04-14T15:28:17.450Z,8.37
2023-04-14T15:30:45.977Z,8.43
2023-04-14T15:33:15.878Z,7.90
2023-04-14T15:35:44.434Z,8.87
2023-04-14T15:38:12.977Z,9.10
2023-04-14T15:40:41.918Z,8.43
2023-04-14T15:43:10.548Z,9.20
2023-04-14T15:45:39.167Z,9.27
2023-04-14T15:48:07.644Z,9.27
2023-04-14T15:50:44.397Z,9.83
2023-04-14T15:53:15.040Z,11.07
2023-04-14T15:55:44.329Z,11.97
2023-04-14T15:58:12.781Z,12.33
2023-04-14T16:00:41.595Z,14.07
2023-04-14T16:03:11.980Z,13.17
2023-04-14T16:05:42.832Z,15.07
2023-04-14T16:08:11.756Z,15.53
2023-04-14T16:10:40.960Z,17.87
2023-04-14T16:13:09.942Z,18.03
2023-04-14T16:15:39.177Z,18.57
2023-04-14T16:18:08.127Z,16.90
2023-04-14T16:20:36.901Z,16.83
2023-04-14T16:23:09.114Z,14.60
2023-04-14T16:25:37.777Z,15.10
2023-04-14T16:28:07.211Z,17.60
2023-04-14T16:30:36.559Z,18.10
2023-04-14T16:33:05.923Z,19.20
2023-04-14T16:35:35.900Z,18.77
2023-04-14T16:38:08.694Z,19.30
2023-04-14T16:40:39.357Z,18.17
2023-04-14T16:43:08.419Z,18.07
2023-04-14T16:45:37.121Z,18.90
2023-04-14T16:48:06.079Z,19.30
2023-04-14T16:50:38.240Z,19.33
2023-04-14T16:53:10.829Z,20.67
2023-04-14T16:55:41.027Z,20.17
2023-04-14T16:58:09.946Z,21.07
2023-04-14T17:00:38.580Z,20.60
2023-04-14T17:03:07.151Z,21.13
2023-04-14T17:05:36.094Z,21.23
2023-04-14T17:08:04.842Z,22.17
2023-04-14T17:10:34.490Z,20.97
2023-04-14T17:13:04.405Z,22.33
2023-04-14T17:15:33.163Z,23.00
2023-04-14T17:18:01.847Z,22.40
2023-04-14T17:20:30.650Z,21.57
2023-04-14T17:23:00.253Z,21.40
2023-04-14T17:25:29.135Z,21.77
2023-04-14T17:27:58.121Z,19.47
2023-04-14T17:30:28.176Z,19.97
2023-04-14T17:32:56.615Z,20.87
2023-04-14T17:35:25.151Z,19.60
2023-04-14T17:37:53.706Z,21.63
2023-04-14T17:40:22.287Z,21.70
2023-04-14T17:42:50.853Z,21.63
2023-04-14T17:45:23.052Z,22.13
2023-04-14T17:47:53.709Z,22.80
2023-04-14T17:50:22.689Z,22.67
2023-04-14T17:52:51.660Z,22.90
2023-04-14T17:55:21.519Z,23.73
2023-04-14T17:57:50.303Z,23.80
2023-04-14T18:00:20.026Z,25.67
2023-04-14T18:02:49.813Z,25.00
2023-04-14T18:05:19.893Z,24.10
2023-04-14T18:07:49.491Z,25.77
2023-04-14T18:10:18.836Z,26.87
2023-04-14T18:12:47.780Z,23.83
2023-04-14T18:15:16.992Z,23.70
2023-04-14T18:17:46.129Z,25.20
2023-04-14T18:20:15.707Z,24.43
2023-04-14T18:22:45.877Z,23.83
2023-04-14T18:25:14.608Z,23.77
2023-04-14T18:30:15.280Z,23.57
2023-04-14T18:32:43.813Z,23.93
2023-04-14T18:35:13.086Z,25.37
2023-04-14T18:37:43.291Z,25.50
2023-04-14T18:40:13.602Z,24.63
2023-04-14T18:42:42.187Z,23.07
2023-04-14T18:45:11.224Z,24.83
2023-04-14T18:47:39.761Z,25.67
2023-04-14T18:50:09.320Z,25.23
2023-04-14T18:52:37.859Z,24.07
2023-04-14T18:55:10.620Z,24.57
2023-04-14T18:57:40.716Z,25.60
2023-04-14T19:00:10.668Z,26.13
2023-04-14T19:02:39.222Z,24.40
2023-04-14T19:05:09.866Z,24.20
2023-04-14T19:07:38.372Z,25.03
2023-04-14T19:10:07.882Z,24.27
2023-04-14T19:12:37.878Z,25.20
2023-04-14T19:15:09.218Z,24.83
2023-04-14T19:17:39.246Z,24.13
2023-04-14T19:20:09.077Z,24.77
2023-04-14T19:22:37.646Z,25.50
2023-04-14T19:25:06.843Z,27.10
2023-04-14T19:27:38.517Z,26.53
2023-04-14T19:30:10.010Z,24.50
2023-04-14T19:32:39.162Z,26.87
2023-04-14T19:35:09.028Z,23.17
2023-04-14T19:37:38.523Z,23.77
2023-04-14T19:40:11.068Z,24.83
2023-04-14T19:42:40.047Z,23.87
2023-04-14T19:45:11.385Z,23.07
2023-04-14T19:47:40.095Z,23.20
2023-04-14T19:50:09.998Z,22.73
2023-04-14T19:52:39.183Z,21.73
2023-04-14T19:55:09.197Z,22.30
2023-04-14T19:57:38.221Z,22.77
2023-04-14T20:00:12.130Z,22.90
2023-04-14T20:02:42.159Z,23.27
2023-04-14T20:05:11.496Z,23.63
2023-04-14T20:07:40.828Z,23.47
2023-04-14T20:10:16.825Z,23.17
2023-04-14T20:12:52.011Z,23.53
2023-04-14T20:15:22.746Z,24.97
2023-04-14T20:17:51.730Z,26.27
2023-04-14T20:20:20.956Z,25.90
2023-04-14T20:22:49.835Z,25.87
2023-04-14T20:25:19.039Z,27.63
2023-04-14T20:27:47.620Z,27.70
2023-04-14T20:30:18.414Z,27.20
2023-04-14T20:32:48.965Z,27.03
2023-04-14T20:35:18.708Z,28.37
2023-04-14T20:37:47.508Z,29.00
2023-04-14T20:40:18.256Z,30.53
2023-04-14T20:42:46.877Z,28.17
2023-04-14T20:45:15.498Z,27.33
2023-04-14T20:47:44.093Z,29.13
2023-04-14T20:50:14.099Z,28.73
2023-04-14T20:52:43.820Z,28.23
2023-04-14T20:55:13.466Z,29.23
2023-04-14T20:57:41.992Z,29.93
2023-04-14T21:00:12.007Z,28.17
2023-04-14T21:02:40.652Z,30.33
2023-04-14T21:05:09.771Z,31.27
2023-04-14T21:07:42.083Z,31.43
2023-04-14T21:10:11.868Z,32.33
2023-04-14T21:12:51.131Z,31.37
2023-04-14T21:15:54.040Z,30.00
2023-04-14T21:18:20.017Z,30.03
2023-04-14T21:20:48.585Z,30.07
2023-04-14T21:23:18.943Z,30.43
2023-04-14T21:25:48.110Z,30.23
2023-04-14T21:28:16.947Z,30.00
2023-04-14T21:30:45.477Z,32.53
2023-04-14T21:33:21.656Z,33.67
2023-04-14T21:35:50.730Z,34.23
2023-04-14T21:38:20.769Z,35.40
2023-04-14T21:40:49.358Z,35.97
2023-04-14T21:43:18.221Z,38.23
2023-04-14T21:45:47.201Z,40.90
2023-04-14T21:48:16.929Z,40.87
2023-04-14T21:50:45.413Z,44.30
2023-04-14T21:53:18.115Z,43.47
2023-04-14T21:55:48.199Z,44.23
2023-04-14T21:58:36.685Z,43.10
2023-04-14T22:01:05.684Z,46.30
2023-04-14T22:03:34.366Z,46.43
2023-04-14T22:06:02.830Z,47.80
2023-04-14T22:08:31.340Z,48.27
2023-04-14T22:11:01.460Z,48.67
2023-04-14T22:13:30.125Z,48.90
2023-04-14T22:15:58.603Z,47.27
2023-04-14T22:18:27.655Z,46.83
2023-04-14T22:20:56.873Z,49.13
2023-04-14T22:23:26.085Z,50.70
2023-04-14T22:25:54.540Z,46.97
2023-04-14T22:28:24.480Z,48.70
2023-04-14T22:30:53.144Z,48.60
2023-04-14T22:33:22.648Z,50.23
2023-04-14T22:35:51.254Z,48.30
2023-04-14T22:38:19.752Z,49.97
2023-04-14T22:40:51.018Z,44.80
2023-04-14T22:43:20.829Z,46.93
2023-04-14T22:45:51.040Z,46.57
2023-04-14T22:48:19.620Z,46.40
2023-04-14T22:50:47.981Z,47.80
2023-04-14T22:53:16.415Z,47.20
2023-04-14T22:55:45.394Z,46.80
2023-04-14T22:58:16.934Z,47.27
2023-04-14T23:00:46.264Z,48.10
2023-04-14T23:03:16.718Z,48.47
2023-04-14T23:05:45.879Z,48.93
2023-04-14T23:08:14.519Z,47.23
2023-04-14T23:10:43.017Z,46.87
2023-04-14T23:13:11.450Z,47.67
2023-04-14T23:15:39.921Z,47.93
2023-04-14T23:18:08.494Z,48.30
2023-04-14T23:20:38.710Z,47.50
2023-04-14T23:23:12.127Z,46.70
2023-04-14T23:25:40.776Z,47.70
2023-04-14T23:28:10.091Z,49.00
2023-04-14T23:30:38.568Z,45.67
2023-04-14T23:33:07.015Z,45.80
2023-04-14T23:35:38.795Z,46.90
2023-04-14T23:38:07.293Z,46.60
2023-04-14T23:40:36.643Z,44.30
2023-04-14T23:43:05.136Z,44.90
2023-04-14T23:45:37.277Z,48.17
2023-04-14T23:48:07.672Z,45.20
2023-04-14T23:50:59.679Z,44.33
2023-04-14T23:53:26.490Z,42.53
2023-04-14T23:55:54.909Z,42.33
2023-04-14T23:58:26.862Z,41.57
